OKCER LIPB-LESO
Flight info
| Callsign | OKCER |
|---|---|
| Flight time | N/A |
| Altitude | 23000 |
| Route | ADOSA DCT ELTAR DCT OSKOR DCT ATMAD DCT BADAM DCT LATEK/N0278F240 DCT DONOS DCT SSN |
| Aircraft | PC12/L-SDFGRWY/S |
Departure
| Time | N/A |
|---|---|
| Airport | Bolzano Airport (LIPB) |
Arrival
| Time | 2026-04-28 19:25 |
|---|---|
| Airport | San Sebastián Airport (LESO) |
| Time | Latitude | Longitude | Altitude | Speed | Heading |
|---|---|---|---|---|---|
| 2026-04-28 17:43 | 45.13932 | 6.71236 | 23036 ft | 244 kts | 248° |
| 2026-04-28 17:44 | 45.13521 | 6.69751 | 23038 ft | 244 kts | 248° |
| 2026-04-28 17:44 | 45.12901 | 6.67512 | 23038 ft | 244 kts | 248° |
| 2026-04-28 17:44 | 45.12285 | 6.65288 | 23200 ft | 238 kts | 248° |
| 2026-04-28 17:44 | 45.11688 | 6.63139 | 23464 ft | 231 kts | 248° |
| 2026-04-28 17:45 | 45.11107 | 6.61048 | 23713 ft | 226 kts | 248° |
| 2026-04-28 17:45 | 45.10536 | 6.58991 | 23928 ft | 222 kts | 248° |
| 2026-04-28 17:45 | 45.09976 | 6.56978 | 24158 ft | 218 kts | 248° |
| 2026-04-28 17:45 | 45.09423 | 6.54992 | 24386 ft | 215 kts | 248° |
| 2026-04-28 17:46 | 45.08875 | 6.53028 | 24627 ft | 213 kts | 248° |
| 2026-04-28 17:46 | 45.08333 | 6.51085 | 24874 ft | 212 kts | 248° |
| 2026-04-28 17:46 | 45.07790 | 6.49137 | 25017 ft | 215 kts | 248° |
| 2026-04-28 17:46 | 45.07234 | 6.47145 | 25028 ft | 221 kts | 248° |
| 2026-04-28 17:47 | 45.06666 | 6.45113 | 25020 ft | 227 kts | 249° |
| 2026-04-28 17:47 | 45.06081 | 6.43020 | 25027 ft | 231 kts | 248° |
| 2026-04-28 17:47 | 45.05479 | 6.40871 | 25023 ft | 237 kts | 248° |
| 2026-04-28 17:47 | 45.05074 | 6.39426 | 25021 ft | 239 kts | 248° |
| 2026-04-28 17:48 | 45.03951 | 6.36710 | 25020 ft | 241 kts | 234° |
| 2026-04-28 17:48 | 45.02920 | 6.34822 | 25018 ft | 244 kts | 233° |
| 2026-04-28 17:48 | 45.01856 | 6.32932 | 25018 ft | 246 kts | 233° |
| 2026-04-28 17:48 | 45.00783 | 6.31046 | 25009 ft | 246 kts | 232° |
| 2026-04-28 17:49 | 44.99712 | 6.29154 | 25009 ft | 246 kts | 232° |
| 2026-04-28 17:49 | 44.98682 | 6.27227 | 25009 ft | 246 kts | 236° |
| 2026-04-28 17:49 | 44.97736 | 6.25240 | 25009 ft | 247 kts | 237° |
| 2026-04-28 17:49 | 44.96795 | 6.23210 | 25006 ft | 246 kts | 237° |
| 2026-04-28 17:50 | 44.95861 | 6.21186 | 25010 ft | 246 kts | 237° |
| 2026-04-28 17:50 | 44.94928 | 6.19163 | 25011 ft | 247 kts | 237° |
| 2026-04-28 17:50 | 44.93974 | 6.17137 | 25011 ft | 247 kts | 233° |
| 2026-04-28 17:50 | 44.92943 | 6.15208 | 25006 ft | 245 kts | 238° |
| 2026-04-28 17:51 | 44.92241 | 6.13025 | 25007 ft | 245 kts | 250° |
| 2026-04-28 17:51 | 44.91738 | 6.10723 | 25006 ft | 245 kts | 253° |
| 2026-04-28 17:51 | 44.91234 | 6.08422 | 25022 ft | 246 kts | 250° |
| 2026-04-28 17:51 | 44.90642 | 6.06172 | 25021 ft | 247 kts | 248° |
| 2026-04-28 17:52 | 44.90016 | 6.03919 | 25017 ft | 247 kts | 248° |
| 2026-04-28 17:52 | 44.89402 | 6.01651 | 25021 ft | 247 kts | 249° |
| 2026-04-28 17:52 | 44.88188 | 5.97087 | 25018 ft | 249 kts | 249° |
| 2026-04-28 17:53 | 44.87576 | 5.94806 | 25019 ft | 247 kts | 249° |
| 2026-04-28 17:53 | 44.86965 | 5.92536 | 25023 ft | 247 kts | 249° |
| 2026-04-28 17:53 | 44.86356 | 5.90271 | 25023 ft | 247 kts | 249° |
| 2026-04-28 17:53 | 44.85754 | 5.88033 | 25022 ft | 247 kts | 249° |
| 2026-04-28 17:54 | 44.85146 | 5.85772 | 25024 ft | 247 kts | 249° |
| 2026-04-28 17:54 | 44.84534 | 5.83503 | 25016 ft | 247 kts | 249° |
| 2026-04-28 17:54 | 44.83925 | 5.81243 | 25012 ft | 247 kts | 249° |
| 2026-04-28 17:54 | 44.83315 | 5.78986 | 25012 ft | 246 kts | 249° |
| 2026-04-28 17:55 | 44.82705 | 5.76727 | 25010 ft | 247 kts | 249° |
| 2026-04-28 17:55 | 44.82092 | 5.74464 | 25009 ft | 247 kts | 249° |
| 2026-04-28 17:55 | 44.81479 | 5.72200 | 25010 ft | 247 kts | 249° |
| 2026-04-28 17:55 | 44.80867 | 5.69942 | 25013 ft | 247 kts | 249° |
| 2026-04-28 17:56 | 44.80255 | 5.67684 | 25014 ft | 247 kts | 249° |
| 2026-04-28 17:56 | 44.79643 | 5.65432 | 25014 ft | 246 kts | 249° |
| 2026-04-28 17:56 | 44.79031 | 5.63181 | 25014 ft | 246 kts | 249° |
| 2026-04-28 17:56 | 44.78418 | 5.60928 | 25009 ft | 245 kts | 249° |
| 2026-04-28 17:57 | 44.77816 | 5.58718 | 25012 ft | 245 kts | 249° |
| 2026-04-28 17:57 | 44.77207 | 5.56481 | 25014 ft | 245 kts | 249° |
| 2026-04-28 17:57 | 44.76596 | 5.54242 | 25015 ft | 245 kts | 249° |
| 2026-04-28 17:57 | 44.75984 | 5.52001 | 25014 ft | 245 kts | 249° |
| 2026-04-28 17:58 | 44.75371 | 5.49760 | 25014 ft | 246 kts | 249° |
| 2026-04-28 17:58 | 44.74755 | 5.47506 | 25012 ft | 246 kts | 249° |
| 2026-04-28 17:58 | 44.74140 | 5.45262 | 25017 ft | 246 kts | 249° |
| 2026-04-28 17:58 | 44.73524 | 5.43015 | 25015 ft | 247 kts | 249° |
| 2026-04-28 17:59 | 44.72907 | 5.40765 | 25015 ft | 247 kts | 249° |
| 2026-04-28 17:59 | 44.72289 | 5.38513 | 25014 ft | 247 kts | 249° |
| 2026-04-28 17:59 | 44.71672 | 5.36268 | 25014 ft | 246 kts | 248° |
| 2026-04-28 17:59 | 44.71053 | 5.34020 | 25017 ft | 247 kts | 249° |
| 2026-04-28 18:00 | 44.70432 | 5.31763 | 25025 ft | 247 kts | 249° |
| 2026-04-28 18:00 | 44.69807 | 5.29497 | 25025 ft | 248 kts | 249° |
| 2026-04-28 18:00 | 44.69190 | 5.27261 | 25024 ft | 248 kts | 249° |
| 2026-04-28 18:00 | 44.68559 | 5.24976 | 25020 ft | 248 kts | 249° |
| 2026-04-28 18:01 | 44.67935 | 5.22716 | 25025 ft | 248 kts | 249° |
| 2026-04-28 18:01 | 44.67319 | 5.20490 | 25026 ft | 248 kts | 249° |
| 2026-04-28 18:01 | 44.66695 | 5.18236 | 25024 ft | 247 kts | 249° |
| 2026-04-28 18:01 | 44.66069 | 5.15977 | 25017 ft | 247 kts | 249° |
| 2026-04-28 18:02 | 44.65444 | 5.13726 | 25022 ft | 248 kts | 249° |
| 2026-04-28 18:02 | 44.64817 | 5.11469 | 25018 ft | 248 kts | 248° |
| 2026-04-28 18:02 | 44.64192 | 5.09219 | 25022 ft | 247 kts | 249° |
| 2026-04-28 18:02 | 44.63567 | 5.06970 | 25021 ft | 248 kts | 249° |
| 2026-04-28 18:03 | 44.62939 | 5.04716 | 25020 ft | 247 kts | 249° |
| 2026-04-28 18:03 | 44.62313 | 5.02471 | 25016 ft | 247 kts | 249° |
| 2026-04-28 18:03 | 44.61688 | 5.00228 | 25015 ft | 247 kts | 249° |
| 2026-04-28 18:03 | 44.61062 | 4.97989 | 25016 ft | 246 kts | 249° |
| 2026-04-28 18:04 | 44.60435 | 4.95742 | 25015 ft | 246 kts | 249° |
| 2026-04-28 18:04 | 44.59815 | 4.93525 | 25012 ft | 247 kts | 248° |
| 2026-04-28 18:04 | 44.59187 | 4.91285 | 25012 ft | 247 kts | 248° |
| 2026-04-28 18:04 | 44.58558 | 4.89039 | 25012 ft | 247 kts | 248° |
| 2026-04-28 18:05 | 44.57928 | 4.86788 | 25010 ft | 248 kts | 248° |
| 2026-04-28 18:05 | 44.57510 | 4.85299 | 25009 ft | 248 kts | 248° |
| 2026-04-28 18:05 | 44.56665 | 4.82293 | 25008 ft | 248 kts | 248° |
| 2026-04-28 18:05 | 44.56032 | 4.80044 | 25008 ft | 248 kts | 248° |
| 2026-04-28 18:06 | 44.55394 | 4.77776 | 25008 ft | 250 kts | 248° |
| 2026-04-28 18:06 | 44.54757 | 4.75515 | 25009 ft | 250 kts | 248° |
| 2026-04-28 18:06 | 44.54118 | 4.73247 | 25009 ft | 250 kts | 248° |
| 2026-04-28 18:06 | 44.53479 | 4.70985 | 25011 ft | 250 kts | 248° |
| 2026-04-28 18:07 | 44.52838 | 4.68716 | 25011 ft | 250 kts | 248° |
| 2026-04-28 18:07 | 44.52200 | 4.66458 | 25011 ft | 249 kts | 248° |
| 2026-04-28 18:07 | 44.51560 | 4.64197 | 25002 ft | 249 kts | 248° |
| 2026-04-28 18:07 | 44.50921 | 4.61943 | 25002 ft | 249 kts | 248° |
| 2026-04-28 18:08 | 44.50283 | 4.59692 | 25002 ft | 249 kts | 248° |
| 2026-04-28 18:08 | 44.49651 | 4.57468 | 25001 ft | 248 kts | 248° |
| 2026-04-28 18:08 | 44.49011 | 4.55215 | 25014 ft | 248 kts | 248° |
| 2026-04-28 18:08 | 44.48373 | 4.52971 | 25014 ft | 248 kts | 248° |
| 2026-04-28 18:09 | 44.47735 | 4.50730 | 25016 ft | 248 kts | 248° |
| 2026-04-28 18:09 | 44.47096 | 4.48488 | 25016 ft | 247 kts | 248° |
| 2026-04-28 18:09 | 44.46459 | 4.46255 | 25015 ft | 247 kts | 248° |
| 2026-04-28 18:09 | 44.45822 | 4.44021 | 25016 ft | 247 kts | 248° |
| 2026-04-28 18:10 | 44.45185 | 4.41790 | 25017 ft | 246 kts | 248° |
| 2026-04-28 18:10 | 44.44548 | 4.39565 | 25016 ft | 246 kts | 248° |
| 2026-04-28 18:10 | 44.43912 | 4.37341 | 25016 ft | 246 kts | 248° |
| 2026-04-28 18:10 | 44.43282 | 4.35143 | 25016 ft | 246 kts | 248° |
| 2026-04-28 18:11 | 44.42647 | 4.32926 | 25015 ft | 246 kts | 248° |
| 2026-04-28 18:11 | 44.42011 | 4.30708 | 25015 ft | 245 kts | 248° |
| 2026-04-28 18:11 | 44.41375 | 4.28495 | 25015 ft | 245 kts | 248° |
| 2026-04-28 18:11 | 44.40739 | 4.26284 | 25017 ft | 245 kts | 248° |
| 2026-04-28 18:12 | 44.40114 | 4.24110 | 25021 ft | 243 kts | 248° |
| 2026-04-28 18:12 | 44.39497 | 4.21966 | 25021 ft | 230 kts | 248° |
| 2026-04-28 18:12 | 44.38948 | 4.20060 | 25022 ft | 182 kts | 247° |
| 2026-04-28 18:12 | 44.38526 | 4.18595 | 25001 ft | 148 kts | 246° |
| 2026-04-28 18:13 | 44.38161 | 4.17334 | 25001 ft | 134 kts | 246° |
| 2026-04-28 18:13 | 44.37820 | 4.16160 | 25001 ft | 128 kts | 247° |
| 2026-04-28 18:13 | 44.37487 | 4.15008 | 24996 ft | 132 kts | 247° |
| 2026-04-28 18:13 | 44.37120 | 4.13736 | 25001 ft | 153 kts | 247° |
| 2026-04-28 18:14 | 44.36692 | 4.12248 | 25006 ft | 176 kts | 248° |
| 2026-04-28 18:14 | 44.36212 | 4.10578 | 25024 ft | 194 kts | 248° |
| 2026-04-28 18:14 | 44.35690 | 4.08763 | 25018 ft | 208 kts | 248° |
| 2026-04-28 18:14 | 44.35132 | 4.06835 | 25016 ft | 218 kts | 248° |
| 2026-04-28 18:15 | 44.34551 | 4.04829 | 25011 ft | 226 kts | 248° |
| 2026-04-28 18:15 | 44.33958 | 4.02785 | 25019 ft | 233 kts | 248° |
| 2026-04-28 18:15 | 44.33341 | 4.00663 | 25020 ft | 238 kts | 248° |
| 2026-04-28 18:15 | 44.32714 | 3.98505 | 25019 ft | 242 kts | 248° |
| 2026-04-28 18:16 | 44.32076 | 3.96312 | 25028 ft | 244 kts | 248° |
| 2026-04-28 18:16 | 44.31433 | 3.94104 | 25030 ft | 246 kts | 247° |
| 2026-04-28 18:16 | 44.30786 | 3.91882 | 25030 ft | 247 kts | 247° |
| 2026-04-28 18:16 | 44.30136 | 3.89654 | 25032 ft | 248 kts | 247° |
| 2026-04-28 18:17 | 44.29483 | 3.87419 | 25034 ft | 249 kts | 247° |
| 2026-04-28 18:17 | 44.28828 | 3.85176 | 25031 ft | 250 kts | 247° |
| 2026-04-28 18:17 | 44.28170 | 3.82928 | 25030 ft | 250 kts | 248° |
| 2026-04-28 18:17 | 44.27519 | 3.80704 | 25033 ft | 250 kts | 248° |
| 2026-04-28 18:18 | 44.26860 | 3.78454 | 25036 ft | 250 kts | 247° |
| 2026-04-28 18:18 | 44.26201 | 3.76205 | 25030 ft | 251 kts | 247° |
| 2026-04-28 18:18 | 44.25539 | 3.73951 | 25034 ft | 250 kts | 247° |
| 2026-04-28 18:18 | 44.25101 | 3.72460 | 25027 ft | 250 kts | 247° |
| 2026-04-28 18:19 | 44.24220 | 3.69462 | 25030 ft | 250 kts | 247° |
| 2026-04-28 18:19 | 44.23560 | 3.67221 | 25027 ft | 249 kts | 247° |
| 2026-04-28 18:19 | 44.22901 | 3.64985 | 25036 ft | 249 kts | 247° |
| 2026-04-28 18:19 | 44.22249 | 3.62773 | 25031 ft | 250 kts | 247° |
| 2026-04-28 18:20 | 44.21586 | 3.60527 | 25031 ft | 250 kts | 247° |
| 2026-04-28 18:20 | 44.20922 | 3.58278 | 25032 ft | 250 kts | 247° |
| 2026-04-28 18:20 | 44.20258 | 3.56032 | 25031 ft | 251 kts | 247° |
| 2026-04-28 18:20 | 44.19594 | 3.53787 | 25032 ft | 250 kts | 247° |
| 2026-04-28 18:21 | 44.18928 | 3.51538 | 25033 ft | 250 kts | 247° |
| 2026-04-28 18:21 | 44.18265 | 3.49299 | 25036 ft | 250 kts | 247° |
| 2026-04-28 18:21 | 44.17599 | 3.47057 | 25033 ft | 250 kts | 247° |
| 2026-04-28 18:21 | 44.16942 | 3.44841 | 25030 ft | 250 kts | 247° |
| 2026-04-28 18:22 | 44.16276 | 3.42601 | 25024 ft | 251 kts | 247° |
| 2026-04-28 18:22 | 44.15607 | 3.40352 | 25026 ft | 251 kts | 247° |
| 2026-04-28 18:22 | 44.14939 | 3.38109 | 25029 ft | 251 kts | 247° |
| 2026-04-28 18:22 | 44.14271 | 3.35868 | 25025 ft | 251 kts | 247° |
| 2026-04-28 18:23 | 44.13603 | 3.33628 | 25020 ft | 251 kts | 247° |
| 2026-04-28 18:23 | 44.12931 | 3.31377 | 25017 ft | 250 kts | 247° |
| 2026-04-28 18:23 | 44.12261 | 3.29133 | 25026 ft | 251 kts | 247° |
| 2026-04-28 18:23 | 44.11592 | 3.26896 | 25018 ft | 250 kts | 247° |
| 2026-04-28 18:24 | 44.10929 | 3.24680 | 25022 ft | 251 kts | 247° |
| 2026-04-28 18:24 | 44.10486 | 3.23201 | 25025 ft | 249 kts | 247° |
| 2026-04-28 18:24 | 44.09591 | 3.20217 | 25023 ft | 249 kts | 247° |
| 2026-04-28 18:24 | 44.08923 | 3.17990 | 25027 ft | 249 kts | 247° |
| 2026-04-28 18:25 | 44.08257 | 3.15765 | 25029 ft | 249 kts | 247° |
| 2026-04-28 18:25 | 44.07602 | 3.13529 | 25021 ft | 250 kts | 247° |
| 2026-04-28 18:25 | 44.06947 | 3.11287 | 25029 ft | 250 kts | 247° |
| 2026-04-28 18:26 | 44.05637 | 3.06843 | 25029 ft | 250 kts | 247° |
| 2026-04-28 18:26 | 44.04976 | 3.04605 | 25032 ft | 250 kts | 247° |
| 2026-04-28 18:26 | 44.04316 | 3.02368 | 25031 ft | 250 kts | 247° |
| 2026-04-28 18:26 | 44.03655 | 3.00131 | 25031 ft | 250 kts | 247° |
| 2026-04-28 18:27 | 44.02994 | 2.97896 | 25029 ft | 250 kts | 247° |
| 2026-04-28 18:27 | 44.02331 | 2.95658 | 25021 ft | 250 kts | 247° |
| 2026-04-28 18:27 | 44.01671 | 2.93429 | 25025 ft | 249 kts | 247° |
| 2026-04-28 18:27 | 44.01009 | 2.91199 | 25020 ft | 249 kts | 247° |
| 2026-04-28 18:28 | 44.00347 | 2.88969 | 25018 ft | 249 kts | 247° |
| 2026-04-28 18:28 | 43.99695 | 2.86775 | 25024 ft | 249 kts | 247° |
| 2026-04-28 18:28 | 43.99035 | 2.84554 | 25014 ft | 249 kts | 246° |
| 2026-04-28 18:28 | 43.98370 | 2.82320 | 25016 ft | 250 kts | 246° |
| 2026-04-28 18:29 | 43.97706 | 2.80091 | 25019 ft | 250 kts | 246° |
| 2026-04-28 18:29 | 43.97039 | 2.77857 | 25013 ft | 250 kts | 246° |
| 2026-04-28 18:29 | 43.96374 | 2.75627 | 25012 ft | 250 kts | 246° |
| 2026-04-28 18:29 | 43.95707 | 2.73394 | 25006 ft | 250 kts | 246° |
| 2026-04-28 18:30 | 43.95040 | 2.71164 | 25006 ft | 250 kts | 246° |
| 2026-04-28 18:30 | 43.94823 | 2.70437 | 25000 ft | 250 kts | 246° |
| 2026-04-28 18:30 | 43.93706 | 2.66707 | 25005 ft | 250 kts | 246° |
| 2026-04-28 18:30 | 43.93264 | 2.65233 | 25003 ft | 250 kts | 246° |
| 2026-04-28 18:31 | 43.92381 | 2.62289 | 25006 ft | 249 kts | 246° |
| 2026-04-28 18:31 | 43.91715 | 2.60069 | 25009 ft | 249 kts | 246° |
| 2026-04-28 18:31 | 43.91050 | 2.57857 | 25005 ft | 248 kts | 246° |
| 2026-04-28 18:31 | 43.90385 | 2.55645 | 25002 ft | 248 kts | 246° |
| 2026-04-28 18:32 | 43.89944 | 2.54183 | 25003 ft | 248 kts | 246° |
| 2026-04-28 18:32 | 43.89281 | 2.51980 | 25003 ft | 247 kts | 246° |
| 2026-04-28 18:32 | 43.88618 | 2.49782 | 25002 ft | 247 kts | 246° |
| 2026-04-28 18:32 | 43.87955 | 2.47584 | 24994 ft | 247 kts | 246° |
| 2026-04-28 18:33 | 43.87292 | 2.45388 | 24993 ft | 247 kts | 246° |
| 2026-04-28 18:33 | 43.86626 | 2.43184 | 24988 ft | 247 kts | 246° |
| 2026-04-28 18:33 | 43.85961 | 2.40987 | 24988 ft | 247 kts | 246° |
| 2026-04-28 18:33 | 43.85296 | 2.38788 | 24993 ft | 247 kts | 246° |
| 2026-04-28 18:34 | 43.84630 | 2.36593 | 24986 ft | 247 kts | 246° |
| 2026-04-28 18:34 | 43.83964 | 2.34395 | 24988 ft | 247 kts | 246° |
| 2026-04-28 18:34 | 43.83297 | 2.32199 | 24988 ft | 247 kts | 246° |
| 2026-04-28 18:34 | 43.82638 | 2.30029 | 24989 ft | 247 kts | 246° |
| 2026-04-28 18:35 | 43.81969 | 2.27828 | 24989 ft | 247 kts | 246° |
| 2026-04-28 18:35 | 43.81300 | 2.25631 | 24991 ft | 247 kts | 246° |
| 2026-04-28 18:35 | 43.80632 | 2.23437 | 24979 ft | 247 kts | 246° |
| 2026-04-28 18:35 | 43.79964 | 2.21246 | 24975 ft | 247 kts | 246° |
| 2026-04-28 18:36 | 43.79304 | 2.19082 | 24981 ft | 247 kts | 246° |
| 2026-04-28 18:36 | 43.78634 | 2.16888 | 24978 ft | 247 kts | 246° |
| 2026-04-28 18:36 | 43.77963 | 2.14693 | 24981 ft | 248 kts | 246° |
| 2026-04-28 18:36 | 43.77288 | 2.12486 | 24974 ft | 248 kts | 246° |
| 2026-04-28 18:37 | 43.76616 | 2.10292 | 24972 ft | 248 kts | 246° |
| 2026-04-28 18:37 | 43.75941 | 2.08089 | 24974 ft | 248 kts | 246° |
| 2026-04-28 18:37 | 43.75266 | 2.05886 | 24971 ft | 249 kts | 246° |
| 2026-04-28 18:37 | 43.74596 | 2.03704 | 24973 ft | 249 kts | 246° |
| 2026-04-28 18:38 | 43.73920 | 2.01505 | 24975 ft | 249 kts | 246° |
| 2026-04-28 18:38 | 43.73242 | 1.99299 | 24969 ft | 249 kts | 246° |
| 2026-04-28 18:38 | 43.72564 | 1.97094 | 24963 ft | 249 kts | 246° |
| 2026-04-28 18:38 | 43.71887 | 1.94895 | 24958 ft | 248 kts | 246° |
| 2026-04-28 18:39 | 43.71209 | 1.92695 | 24961 ft | 248 kts | 246° |
| 2026-04-28 18:39 | 43.70532 | 1.90501 | 24956 ft | 248 kts | 246° |
| 2026-04-28 18:39 | 43.69855 | 1.88309 | 24960 ft | 248 kts | 246° |
| 2026-04-28 18:39 | 43.69187 | 1.86147 | 24961 ft | 248 kts | 246° |
| 2026-04-28 18:40 | 43.68511 | 1.83960 | 24959 ft | 247 kts | 246° |
| 2026-04-28 18:40 | 43.67834 | 1.81773 | 24957 ft | 247 kts | 245° |
| 2026-04-28 18:40 | 43.67159 | 1.79596 | 24954 ft | 247 kts | 245° |
| 2026-04-28 18:40 | 43.66484 | 1.77418 | 24947 ft | 246 kts | 245° |
| 2026-04-28 18:41 | 43.65809 | 1.75242 | 24950 ft | 246 kts | 245° |
| 2026-04-28 18:41 | 43.65136 | 1.73075 | 24945 ft | 246 kts | 245° |
| 2026-04-28 18:41 | 43.64460 | 1.70902 | 24949 ft | 246 kts | 245° |
| 2026-04-28 18:41 | 43.63785 | 1.68732 | 24948 ft | 245 kts | 245° |
| 2026-04-28 18:42 | 43.63112 | 1.66570 | 24937 ft | 245 kts | 245° |
| 2026-04-28 18:42 | 43.62438 | 1.64408 | 24939 ft | 245 kts | 245° |
| 2026-04-28 18:42 | 43.61767 | 1.62254 | 24932 ft | 244 kts | 245° |
| 2026-04-28 18:42 | 43.61094 | 1.60100 | 24935 ft | 244 kts | 245° |
| 2026-04-28 18:43 | 43.60421 | 1.57944 | 24933 ft | 244 kts | 245° |
| 2026-04-28 18:43 | 43.59747 | 1.55789 | 24934 ft | 244 kts | 245° |
| 2026-04-28 18:43 | 43.59074 | 1.53638 | 24939 ft | 244 kts | 245° |
| 2026-04-28 18:43 | 43.58401 | 1.51488 | 24947 ft | 244 kts | 245° |
| 2026-04-28 18:44 | 43.57729 | 1.49342 | 24940 ft | 244 kts | 245° |
| 2026-04-28 18:44 | 43.56392 | 1.45084 | 24942 ft | 243 kts | 245° |
| 2026-04-28 18:44 | 43.55719 | 1.42940 | 24939 ft | 243 kts | 245° |
| 2026-04-28 18:45 | 43.55045 | 1.40798 | 24945 ft | 243 kts | 245° |
| 2026-04-28 18:45 | 43.54371 | 1.38657 | 24945 ft | 243 kts | 245° |
| 2026-04-28 18:45 | 43.53698 | 1.36518 | 24945 ft | 243 kts | 245° |
| 2026-04-28 18:45 | 43.53021 | 1.34372 | 24941 ft | 244 kts | 245° |
| 2026-04-28 18:46 | 43.52344 | 1.32225 | 24945 ft | 244 kts | 245° |
| 2026-04-28 18:46 | 43.51668 | 1.30082 | 24940 ft | 244 kts | 245° |
| 2026-04-28 18:46 | 43.50989 | 1.27936 | 24945 ft | 244 kts | 245° |
| 2026-04-28 18:46 | 43.50311 | 1.25791 | 24941 ft | 244 kts | 245° |
| 2026-04-28 18:47 | 43.49633 | 1.23648 | 24942 ft | 244 kts | 245° |
| 2026-04-28 18:47 | 43.48956 | 1.21509 | 24943 ft | 244 kts | 245° |
| 2026-04-28 18:47 | 43.48286 | 1.19397 | 24938 ft | 243 kts | 245° |
| 2026-04-28 18:47 | 43.47608 | 1.17261 | 24939 ft | 243 kts | 245° |
| 2026-04-28 18:48 | 43.46931 | 1.15128 | 24939 ft | 243 kts | 245° |
| 2026-04-28 18:48 | 43.46255 | 1.12999 | 24948 ft | 242 kts | 245° |
| 2026-04-28 18:48 | 43.45587 | 1.10883 | 24951 ft | 240 kts | 246° |
| 2026-04-28 18:48 | 43.45268 | 1.08620 | 24950 ft | 243 kts | 262° |
| 2026-04-28 18:49 | 43.45224 | 1.06275 | 24947 ft | 244 kts | 265° |
| 2026-04-28 18:49 | 43.45196 | 1.04728 | 24951 ft | 244 kts | 263° |
| 2026-04-28 18:49 | 43.45034 | 1.01648 | 24951 ft | 242 kts | 261° |
| 2026-04-28 18:49 | 43.44889 | 0.99338 | 24951 ft | 243 kts | 261° |
| 2026-04-28 18:50 | 43.44758 | 0.97022 | 24951 ft | 243 kts | 262° |
| 2026-04-28 18:50 | 43.44633 | 0.94704 | 24948 ft | 243 kts | 262° |
| 2026-04-28 18:50 | 43.44504 | 0.92382 | 24943 ft | 243 kts | 262° |
| 2026-04-28 18:50 | 43.44372 | 0.90053 | 24951 ft | 243 kts | 262° |
| 2026-04-28 18:51 | 43.44240 | 0.87729 | 24952 ft | 244 kts | 262° |
| 2026-04-28 18:51 | 43.44109 | 0.85402 | 24951 ft | 244 kts | 262° |
| 2026-04-28 18:51 | 43.43976 | 0.83068 | 24952 ft | 244 kts | 262° |
| 2026-04-28 18:51 | 43.43845 | 0.80770 | 24951 ft | 244 kts | 262° |
| 2026-04-28 18:52 | 43.43712 | 0.78439 | 24949 ft | 244 kts | 262° |
| 2026-04-28 18:52 | 43.43578 | 0.76106 | 24958 ft | 244 kts | 262° |
| 2026-04-28 18:52 | 43.43444 | 0.73771 | 24955 ft | 244 kts | 261° |
| 2026-04-28 18:52 | 43.43309 | 0.71438 | 24948 ft | 244 kts | 261° |
| 2026-04-28 18:53 | 43.43174 | 0.69117 | 24954 ft | 243 kts | 261° |
| 2026-04-28 18:53 | 43.43039 | 0.66797 | 24953 ft | 243 kts | 261° |
| 2026-04-28 18:53 | 43.42905 | 0.64508 | 24949 ft | 243 kts | 261° |
| 2026-04-28 18:53 | 43.42769 | 0.62188 | 24940 ft | 244 kts | 262° |
| 2026-04-28 18:54 | 43.42632 | 0.59857 | 24938 ft | 244 kts | 262° |
| 2026-04-28 18:54 | 43.42494 | 0.57525 | 24940 ft | 245 kts | 262° |
| 2026-04-28 18:54 | 43.42355 | 0.55184 | 24940 ft | 245 kts | 262° |
| 2026-04-28 18:54 | 43.42216 | 0.52848 | 24940 ft | 245 kts | 262° |
| 2026-04-28 18:55 | 43.42077 | 0.50512 | 24940 ft | 245 kts | 262° |
| 2026-04-28 18:55 | 43.41985 | 0.48969 | 24938 ft | 245 kts | 262° |
| 2026-04-28 18:55 | 43.41797 | 0.45849 | 24932 ft | 245 kts | 262° |
| 2026-04-28 18:55 | 43.41656 | 0.43512 | 24941 ft | 245 kts | 262° |
| 2026-04-28 18:56 | 43.41515 | 0.41180 | 24940 ft | 245 kts | 262° |
| 2026-04-28 18:56 | 43.41373 | 0.38841 | 24940 ft | 245 kts | 262° |
| 2026-04-28 18:56 | 43.41230 | 0.36497 | 24946 ft | 246 kts | 262° |
| 2026-04-28 18:56 | 43.41088 | 0.34179 | 24947 ft | 246 kts | 262° |
| 2026-04-28 18:57 | 43.40944 | 0.31828 | 24947 ft | 247 kts | 262° |
| 2026-04-28 18:57 | 43.40799 | 0.29473 | 24948 ft | 248 kts | 262° |
| 2026-04-28 18:57 | 43.40653 | 0.27111 | 24947 ft | 248 kts | 262° |
| 2026-04-28 18:57 | 43.40507 | 0.24745 | 24948 ft | 249 kts | 262° |
| 2026-04-28 18:58 | 43.40359 | 0.22371 | 24948 ft | 250 kts | 262° |
| 2026-04-28 18:58 | 43.40210 | 0.19978 | 24948 ft | 251 kts | 262° |
| 2026-04-28 18:58 | 43.40060 | 0.17586 | 24948 ft | 251 kts | 262° |
| 2026-04-28 18:58 | 43.39910 | 0.15191 | 24945 ft | 251 kts | 262° |
| 2026-04-28 18:59 | 43.39761 | 0.12826 | 24948 ft | 251 kts | 262° |
| 2026-04-28 18:59 | 43.39609 | 0.10430 | 24943 ft | 251 kts | 262° |
| 2026-04-28 18:59 | 43.39458 | 0.08038 | 24948 ft | 251 kts | 262° |
| 2026-04-28 18:59 | 43.39305 | 0.05637 | 24945 ft | 251 kts | 262° |
| 2026-04-28 19:00 | 43.39152 | 0.03247 | 24948 ft | 251 kts | 261° |
| 2026-04-28 19:00 | 43.38999 | 0.00855 | 24948 ft | 251 kts | 261° |
| 2026-04-28 19:00 | 43.38845 | -0.01534 | 24947 ft | 251 kts | 263° |
| 2026-04-28 19:00 | 43.38692 | -0.03924 | 24947 ft | 251 kts | 263° |
| 2026-04-28 19:01 | 43.38538 | -0.06311 | 24949 ft | 250 kts | 263° |
| 2026-04-28 19:01 | 43.38383 | -0.08697 | 24949 ft | 250 kts | 263° |
| 2026-04-28 19:01 | 43.38228 | -0.11076 | 24950 ft | 250 kts | 263° |
| 2026-04-28 19:01 | 43.38072 | -0.13458 | 24934 ft | 250 kts | 263° |
| 2026-04-28 19:02 | 43.37916 | -0.15840 | 24932 ft | 250 kts | 263° |
| 2026-04-28 19:02 | 43.37760 | -0.18187 | 24929 ft | 247 kts | 263° |
| 2026-04-28 19:02 | 43.37599 | -0.20551 | 24624 ft | 249 kts | 263° |
| 2026-04-28 19:02 | 43.37434 | -0.22934 | 24316 ft | 251 kts | 263° |
| 2026-04-28 19:03 | 43.37265 | -0.25331 | 24014 ft | 252 kts | 263° |
| 2026-04-28 19:03 | 43.37094 | -0.27736 | 23714 ft | 253 kts | 263° |
| 2026-04-28 19:03 | 43.36922 | -0.30143 | 23402 ft | 253 kts | 263° |
| 2026-04-28 19:03 | 43.36791 | -0.32551 | 23047 ft | 253 kts | 264° |
| 2026-04-28 19:04 | 43.36652 | -0.34959 | 22697 ft | 253 kts | 263° |
| 2026-04-28 19:04 | 43.36489 | -0.37337 | 22353 ft | 252 kts | 263° |
| 2026-04-28 19:04 | 43.36320 | -0.39732 | 22011 ft | 252 kts | 263° |
| 2026-04-28 19:04 | 43.36156 | -0.42131 | 21672 ft | 251 kts | 263° |
| 2026-04-28 19:05 | 43.35995 | -0.44525 | 21334 ft | 251 kts | 263° |
| 2026-04-28 19:05 | 43.35832 | -0.46915 | 21006 ft | 251 kts | 263° |
| 2026-04-28 19:05 | 43.35669 | -0.49294 | 20679 ft | 250 kts | 263° |
| 2026-04-28 19:05 | 43.35504 | -0.51681 | 20353 ft | 250 kts | 263° |
| 2026-04-28 19:06 | 43.35341 | -0.54058 | 20033 ft | 250 kts | 263° |
| 2026-04-28 19:06 | 43.35232 | -0.55630 | 19825 ft | 250 kts | 263° |
| 2026-04-28 19:06 | 43.35013 | -0.58790 | 19409 ft | 250 kts | 262° |
| 2026-04-28 19:06 | 43.34847 | -0.61168 | 19104 ft | 249 kts | 262° |
| 2026-04-28 19:07 | 43.34681 | -0.63547 | 18799 ft | 249 kts | 262° |
| 2026-04-28 19:07 | 43.34518 | -0.65886 | 18501 ft | 249 kts | 262° |
| 2026-04-28 19:07 | 43.34352 | -0.68254 | 18197 ft | 249 kts | 262° |
| 2026-04-28 19:07 | 43.34185 | -0.70621 | 17853 ft | 249 kts | 262° |
| 2026-04-28 19:08 | 43.34017 | -0.72991 | 17504 ft | 249 kts | 262° |
| 2026-04-28 19:08 | 43.33850 | -0.75357 | 17165 ft | 249 kts | 263° |
| 2026-04-28 19:08 | 43.33681 | -0.77727 | 16834 ft | 249 kts | 263° |
| 2026-04-28 19:08 | 43.33513 | -0.80086 | 16503 ft | 248 kts | 263° |
| 2026-04-28 19:09 | 43.33347 | -0.82412 | 16175 ft | 248 kts | 263° |
| 2026-04-28 19:09 | 43.33178 | -0.84767 | 15850 ft | 248 kts | 263° |
| 2026-04-28 19:09 | 43.33030 | -0.87118 | 15524 ft | 246 kts | 268° |
| 2026-04-28 19:09 | 43.33363 | -0.89446 | 15123 ft | 252 kts | 286° |
| 2026-04-28 19:10 | 43.33973 | -0.91717 | 14692 ft | 254 kts | 289° |
| 2026-04-28 19:10 | 43.34587 | -0.94004 | 14261 ft | 254 kts | 286° |
| 2026-04-28 19:10 | 43.35098 | -0.96324 | 13836 ft | 253 kts | 284° |
| 2026-04-28 19:10 | 43.35570 | -0.98657 | 13368 ft | 253 kts | 284° |
| 2026-04-28 19:11 | 43.36054 | -1.00954 | 12907 ft | 253 kts | 284° |
| 2026-04-28 19:11 | 43.36557 | -1.03277 | 12442 ft | 253 kts | 284° |
| 2026-04-28 19:11 | 43.37059 | -1.05604 | 11983 ft | 253 kts | 284° |
| 2026-04-28 19:11 | 43.37552 | -1.07917 | 11533 ft | 252 kts | 283° |
| 2026-04-28 19:12 | 43.38043 | -1.10224 | 11096 ft | 251 kts | 283° |
| 2026-04-28 19:12 | 43.38534 | -1.12529 | 10642 ft | 251 kts | 283° |
| 2026-04-28 19:12 | 43.39025 | -1.14830 | 10216 ft | 250 kts | 283° |
| 2026-04-28 19:12 | 43.39512 | -1.17121 | 9782 ft | 248 kts | 283° |
| 2026-04-28 19:13 | 43.39985 | -1.19327 | 9307 ft | 232 kts | 283° |
| 2026-04-28 19:13 | 43.40425 | -1.21381 | 8838 ft | 217 kts | 283° |
| 2026-04-28 19:13 | 43.40836 | -1.23324 | 8384 ft | 207 kts | 283° |
| 2026-04-28 19:13 | 43.41223 | -1.25157 | 8000 ft | 197 kts | 282° |
| 2026-04-28 19:14 | 43.41598 | -1.26933 | 7624 ft | 189 kts | 283° |
| 2026-04-28 19:14 | 43.41959 | -1.28641 | 7250 ft | 184 kts | 283° |
| 2026-04-28 19:14 | 43.42312 | -1.30312 | 6886 ft | 179 kts | 283° |
| 2026-04-28 19:14 | 43.42657 | -1.31949 | 6528 ft | 178 kts | 283° |
| 2026-04-28 19:15 | 43.42999 | -1.33573 | 6157 ft | 175 kts | 283° |
| 2026-04-28 19:15 | 43.43336 | -1.35166 | 5775 ft | 172 kts | 284° |
| 2026-04-28 19:15 | 43.43668 | -1.36747 | 5398 ft | 172 kts | 284° |
| 2026-04-28 19:15 | 43.43888 | -1.37790 | 5151 ft | 171 kts | 285° |
| 2026-04-28 19:16 | 43.44332 | -1.39902 | 4650 ft | 172 kts | 285° |
| 2026-04-28 19:16 | 43.44666 | -1.41494 | 4271 ft | 174 kts | 285° |
| 2026-04-28 19:16 | 43.45004 | -1.43098 | 3897 ft | 175 kts | 285° |
| 2026-04-28 19:16 | 43.45343 | -1.44715 | 3524 ft | 177 kts | 285° |
| 2026-04-28 19:17 | 43.45684 | -1.46341 | 3151 ft | 177 kts | 285° |
| 2026-04-28 19:17 | 43.46019 | -1.47938 | 3002 ft | 166 kts | 285° |
| 2026-04-28 19:17 | 43.46325 | -1.49407 | 2996 ft | 155 kts | 286° |
| 2026-04-28 19:17 | 43.46616 | -1.50805 | 2992 ft | 150 kts | 286° |
| 2026-04-28 19:18 | 43.46854 | -1.52164 | 2991 ft | 148 kts | 284° |
| 2026-04-28 19:18 | 43.47133 | -1.53586 | 2878 ft | 158 kts | 285° |
| 2026-04-28 19:18 | 43.47416 | -1.55040 | 2758 ft | 161 kts | 285° |
| 2026-04-28 19:18 | 43.47700 | -1.56536 | 2632 ft | 162 kts | 285° |
| 2026-04-28 19:19 | 43.47981 | -1.58032 | 2513 ft | 162 kts | 285° |
| 2026-04-28 19:19 | 43.48261 | -1.59518 | 2503 ft | 156 kts | 285° |
| 2026-04-28 19:19 | 43.48529 | -1.60950 | 2500 ft | 153 kts | 285° |
| 2026-04-28 19:19 | 43.48794 | -1.62362 | 2499 ft | 151 kts | 283° |
| 2026-04-28 19:20 | 43.48803 | -1.63783 | 2502 ft | 148 kts | 253° |
| 2026-04-28 19:20 | 43.48327 | -1.65007 | 2509 ft | 144 kts | 224° |
| 2026-04-28 19:20 | 43.47546 | -1.65914 | 2394 ft | 150 kts | 215° |
| 2026-04-28 19:20 | 43.46729 | -1.66816 | 2272 ft | 154 kts | 216° |
| 2026-04-28 19:21 | 43.45890 | -1.67749 | 2149 ft | 156 kts | 216° |
| 2026-04-28 19:21 | 43.45054 | -1.68677 | 2107 ft | 152 kts | 217° |
| 2026-04-28 19:21 | 43.44236 | -1.69582 | 2060 ft | 151 kts | 217° |
| 2026-04-28 19:21 | 43.43685 | -1.70190 | 1946 ft | 154 kts | 216° |
| 2026-04-28 19:22 | 43.42835 | -1.71130 | 1739 ft | 159 kts | 217° |
| 2026-04-28 19:22 | 43.42274 | -1.71752 | 1594 ft | 155 kts | 217° |
| 2026-04-28 19:22 | 43.40905 | -1.73265 | 1227 ft | 147 kts | 219° |
| 2026-04-28 19:22 | 43.40382 | -1.73841 | 1091 ft | 138 kts | 220° |
| 2026-04-28 19:23 | 43.39673 | -1.74624 | 927 ft | 123 kts | 219° |
| 2026-04-28 19:23 | 43.39042 | -1.75320 | 772 ft | 110 kts | 220° |
| 2026-04-28 19:23 | 43.38492 | -1.75925 | 635 ft | 93 kts | 221° |
| 2026-04-28 19:23 | 43.38035 | -1.76427 | 515 ft | 80 kts | 220° |
| 2026-04-28 19:24 | 43.37590 | -1.76890 | 425 ft | 81 kts | 219° |
| 2026-04-28 19:24 | 43.37157 | -1.77376 | 324 ft | 81 kts | 223° |
| 2026-04-28 19:24 | 43.36722 | -1.77870 | 212 ft | 81 kts | 221° |
| 2026-04-28 19:24 | 43.36300 | -1.78342 | 80 ft | 77 kts | 221° |
| 2026-04-28 19:25 | 43.35908 | -1.78777 | 16 ft | 63 kts | 219° |
| 2026-04-28 19:25 | 43.35755 | -1.78942 | 15 ft | 16 kts | 219° |
| 2026-04-28 19:25 | 43.35713 | -1.79033 | 14 ft | 5 kts | 293° |
| 2026-04-28 19:25 | 43.35734 | -1.79068 | 14 ft | 6 kts | 302° |
| 2026-04-28 19:26 | 43.35738 | -1.79104 | 13 ft | 6 kts | 6° |
| 2026-04-28 19:26 | 43.35731 | -1.79125 | 13 ft | 2 kts | 214° |
| 2026-04-28 19:26 | 43.35729 | -1.79136 | 13 ft | 2 kts | 270° |
| 2026-04-28 19:26 | 43.35725 | -1.79144 | 13 ft | 0 kts | 219° |